Coosawatchie, South Carolina
Current Conditions -  °F | °C
As of 12:56 AM on Wednesday 22 Oct 2014 (Local Time) from KNBC Reporting Station
Clear Clear  
Wind Chill: 63°   Ceiling: Unl
Heat Index: 63°   Visibility: 10mi
Dew Point: 53°   Wind: 7mph
Humidity: 70%   Direction: 290°WNW
Pressure: 29.94"   Gusts: NA
Location:  32.59°N, 80.93°W
Report Text: KNBC 220456Z 29006KT 10SM CLR 17/12 A2994 RMK AO2 SLP138 T01720117 402610156 $
Loading
Personal Weather Stations






























Interactive Weather Map
Tropical Storm Tracking
New forecast layout! Learn more

10-Day Weather Forecast

Advertisements
Track Severe Weather on mobile